sensor_id;sensor_type;location;lat;lon;timestamp;pressure;altitude;pressure_sealevel;temperature;humidity
30302;BME280;17111;52.130;5.028;2023-02-18T00:00:26;102279.47;;;16.95;51.73
30302;BME280;17111;52.130;5.028;2023-02-18T00:02:53;102286.63;;;16.94;51.80
30302;BME280;17111;52.130;5.028;2023-02-18T00:05:21;102283.09;;;16.94;51.64
30302;BME280;17111;52.130;5.028;2023-02-18T00:07:49;102280.44;;;16.94;52.34
30302;BME280;17111;52.130;5.028;2023-02-18T00:10:16;102285.78;;;16.94;51.77
30302;BME280;17111;52.130;5.028;2023-02-18T00:12:43;102278.72;;;16.93;52.22
30302;BME280;17111;52.130;5.028;2023-02-18T00:15:10;102273.38;;;16.93;51.91
30302;BME280;17111;52.130;5.028;2023-02-18T00:17:36;102271.63;;;16.92;52.18
30302;BME280;17111;52.130;5.028;2023-02-18T00:20:05;102272.47;;;16.92;51.97
30302;BME280;17111;52.130;5.028;2023-02-18T00:22:32;102278.72;;;16.93;52.25
30302;BME280;17111;52.130;5.028;2023-02-18T00:24:58;102271.63;;;16.92;51.76
30302;BME280;17111;52.130;5.028;2023-02-18T00:27:25;102267.13;;;16.92;52.13
30302;BME280;17111;52.130;5.028;2023-02-18T00:29:51;102260.91;;;16.92;52.10
30302;BME280;17111;52.130;5.028;2023-02-18T00:32:18;102259.22;;;16.91;51.71
30302;BME280;17111;52.130;5.028;2023-02-18T00:34:45;102261.03;;;16.90;51.54
30302;BME280;17111;52.130;5.028;2023-02-18T00:37:11;102256.66;;;16.89;52.37
30302;BME280;17111;52.130;5.028;2023-02-18T00:39:38;102252.16;;;16.90;52.02
30302;BME280;17111;52.130;5.028;2023-02-18T00:42:04;102255.81;;;16.89;52.00
30302;BME280;17111;52.130;5.028;2023-02-18T00:44:31;102260.28;;;16.88;52.43
30302;BME280;17111;52.130;5.028;2023-02-18T00:46:57;102255.81;;;16.89;51.67
30302;BME280;17111;52.130;5.028;2023-02-18T00:49:24;102254.06;;;16.88;51.79
30302;BME280;17111;52.130;5.028;2023-02-18T00:51:50;102254.94;;;16.88;52.27
30302;BME280;17111;52.130;5.028;2023-02-18T00:54:17;102255.91;;;16.87;51.80
30302;BME280;17111;52.130;5.028;2023-02-18T00:56:43;102249.69;;;16.87;51.57
30302;BME280;17111;52.130;5.028;2023-02-18T00:59:10;102240.69;;;16.88;51.81
30302;BME280;17111;52.130;5.028;2023-02-18T01:01:37;102250.47;;;16.89;51.69
30302;BME280;17111;52.130;5.028;2023-02-18T01:04:04;102244.34;;;16.87;52.33
30302;BME280;17111;52.130;5.028;2023-02-18T01:06:30;102247.03;;;16.87;52.07
30302;BME280;17111;52.130;5.028;2023-02-18T01:08:57;102241.66;;;16.87;52.04
30302;BME280;17111;52.130;5.028;2023-02-18T01:11:24;102246.16;;;16.86;52.45
30302;BME280;17111;52.130;5.028;2023-02-18T01:13:51;102251.53;;;16.86;51.84
30302;BME280;17111;52.130;5.028;2023-02-18T01:16:18;102253.22;;;16.87;51.58
30302;BME280;17111;52.130;5.028;2023-02-18T01:18:44;102249.69;;;16.87;52.06
30302;BME280;17111;52.130;5.028;2023-02-18T01:21:11;102245.31;;;16.86;52.18
30302;BME280;17111;52.130;5.028;2023-02-18T01:23:39;102234.59;;;16.86;51.96
30302;BME280;17111;52.130;5.028;2023-02-18T01:26:06;102226.56;;;16.86;51.63
30302;BME280;17111;52.130;5.028;2023-02-18T01:28:33;102229.34;;;16.84;51.72
30302;BME280;17111;52.130;5.028;2023-02-18T01:31:05;102215.97;;;16.84;52.20
30302;BME280;17111;52.130;5.028;2023-02-18T01:33:33;102219.59;;;16.83;51.73
30302;BME280;17111;52.130;5.028;2023-02-18T01:35:59;102212.44;;;16.84;51.55
30302;BME280;17111;52.130;5.028;2023-02-18T01:38:26;102216.94;;;16.83;51.47
30302;BME280;17111;52.130;5.028;2023-02-18T01:40:53;102210.72;;;16.83;51.46
30302;BME280;17111;52.130;5.028;2023-02-18T01:43:20;102206.34;;;16.82;51.62
30302;BME280;17111;52.130;5.028;2023-02-18T01:48:45;102228.84;;;16.79;52.05
30302;BME280;17111;52.130;5.028;2023-02-18T01:54:14;102202.06;;;16.79;51.88
30302;BME280;17111;52.130;5.028;2023-02-18T01:57:09;102206.44;;;16.80;51.84
30302;BME280;17111;52.130;5.028;2023-02-18T01:59:53;102196.69;;;16.79;51.96
30302;BME280;17111;52.130;5.028;2023-02-18T02:02:24;102199.28;;;16.81;52.05
30302;BME280;17111;52.130;5.028;2023-02-18T02:04:51;102188.56;;;16.81;52.27
30302;BME280;17111;52.130;5.028;2023-02-18T02:07:20;102185.91;;;16.81;52.43
30302;BME280;17111;52.130;5.028;2023-02-18T02:09:49;102176.97;;;16.80;52.04
30302;BME280;17111;52.130;5.028;2023-02-18T02:27:03;102128.19;;;16.76;51.46
30302;BME280;17111;52.130;5.028;2023-02-18T02:32:28;102112.13;;;16.76;51.56
30302;BME280;17111;52.130;5.028;2023-02-18T02:35:03;102110.38;;;16.75;51.80
30302;BME280;17111;52.130;5.028;2023-02-18T02:37:48;102100.66;;;16.74;52.47
30302;BME280;17111;52.130;5.028;2023-02-18T02:46:01;102074.88;;;16.73;52.18
30302;BME280;17111;52.130;5.028;2023-02-18T02:48:52;102074.06;;;16.71;51.94
30302;BME280;17111;52.130;5.028;2023-02-18T02:51:26;102065.97;;;16.73;52.00
30302;BME280;17111;52.130;5.028;2023-02-18T02:53:53;102056.13;;;16.73;51.90
30302;BME280;17111;52.130;5.028;2023-02-18T02:56:22;102054.38;;;16.72;52.42
30302;BME280;17111;52.130;5.028;2023-02-18T02:59:01;102052.66;;;16.71;51.64
30302;BME280;17111;52.130;5.028;2023-02-18T03:04:26;102053.44;;;16.73;52.42
30302;BME280;17111;52.130;5.028;2023-02-18T03:07:10;102047.25;;;16.73;52.00
30302;BME280;17111;52.130;5.028;2023-02-18T03:17:53;102044.63;;;16.71;52.28
30302;BME280;17111;52.130;5.028;2023-02-18T03:20:34;102036.59;;;16.71;51.99
30302;BME280;17111;52.130;5.028;2023-02-18T03:23:06;102037.38;;;16.73;52.22
30302;BME280;17111;52.130;5.028;2023-02-18T03:25:35;102035.56;;;16.74;52.40
30302;BME280;17111;52.130;5.028;2023-02-18T03:28:13;102018.69;;;16.72;51.82
30302;BME280;17111;52.130;5.028;2023-02-18T03:31:03;102007.16;;;16.71;51.78
30302;BME280;17111;52.130;5.028;2023-02-18T03:33:42;102003.53;;;16.72;52.30
30302;BME280;17111;52.130;5.028;2023-02-18T03:36:10;102000.84;;;16.72;52.36
30302;BME280;17111;52.130;5.028;2023-02-18T03:38:43;101995.50;;;16.72;51.98
30302;BME280;17111;52.130;5.028;2023-02-18T03:41:10;101992.81;;;16.72;51.64
30302;BME280;17111;52.130;5.028;2023-02-18T03:43:39;101990.13;;;16.72;51.79
30302;BME280;17111;52.130;5.028;2023-02-18T03:46:06;101974.06;;;16.72;52.23
30302;BME280;17111;52.130;5.028;2023-02-18T03:48:33;101981.22;;;16.72;52.33
30302;BME280;17111;52.130;5.028;2023-02-18T03:51:00;101972.34;;;16.71;52.01
30302;BME280;17111;52.130;5.028;2023-02-18T03:53:26;101969.66;;;16.71;52.00
30302;BME280;17111;52.130;5.028;2023-02-18T03:55:53;101964.31;;;16.71;51.98
30302;BME280;17111;52.130;5.028;2023-02-18T03:58:19;101958.09;;;16.71;52.05
30302;BME280;17111;52.130;5.028;2023-02-18T04:00:46;101956.28;;;16.71;52.22
30302;BME280;17111;52.130;5.028;2023-02-18T04:03:12;101947.41;;;16.71;51.73
30302;BME280;17111;52.130;5.028;2023-02-18T04:05:39;101956.28;;;16.71;52.10
30302;BME280;17111;52.130;5.028;2023-02-18T04:08:05;101961.63;;;16.71;52.12
30302;BME280;17111;52.130;5.028;2023-02-18T04:10:32;101958.09;;;16.71;52.05
30302;BME280;17111;52.130;5.028;2023-02-18T04:12:58;101958.09;;;16.71;52.00
30302;BME280;17111;52.130;5.028;2023-02-18T04:15:25;101956.28;;;16.71;51.94
30302;BME280;17111;52.130;5.028;2023-02-18T04:17:52;101945.56;;;16.71;52.23
30302;BME280;17111;52.130;5.028;2023-02-18T04:20:18;101942.91;;;16.71;52.26
30302;BME280;17111;52.130;5.028;2023-02-18T04:22:45;101942.03;;;16.71;51.87
30302;BME280;17111;52.130;5.028;2023-02-18T04:25:11;101942.91;;;16.71;52.12
30302;BME280;17111;52.130;5.028;2023-02-18T04:27:38;101934.88;;;16.71;52.59
30302;BME280;17111;52.130;5.028;2023-02-18T04:30:05;101936.69;;;16.71;52.40
30302;BME280;17111;52.130;5.028;2023-02-18T04:32:32;101940.22;;;16.71;52.06
30302;BME280;17111;52.130;5.028;2023-02-18T04:34:58;101926.84;;;16.71;52.30
30302;BME280;17111;52.130;5.028;2023-02-18T04:37:25;101927.69;;;16.72;52.36
30302;BME280;17111;52.130;5.028;2023-02-18T04:39:51;101923.22;;;16.72;52.17
30302;BME280;17111;52.130;5.028;2023-02-18T04:42:18;101923.22;;;16.72;52.35
30302;BME280;17111;52.130;5.028;2023-02-18T04:44:44;101913.44;;;16.71;52.19
30302;BME280;17111;52.130;5.028;2023-02-18T04:47:13;101908.94;;;16.72;52.38
30302;BME280;17111;52.130;5.028;2023-02-18T04:49:39;101907.16;;;16.72;52.16
30302;BME280;17111;52.130;5.028;2023-02-18T04:52:06;101898.38;;;16.70;52.57
30302;BME280;17111;52.130;5.028;2023-02-18T04:54:32;101884.97;;;16.70;51.63
30302;BME280;17111;52.130;5.028;2023-02-18T04:56:59;101883.16;;;16.71;51.79
30302;BME280;17111;52.130;5.028;2023-02-18T04:59:25;101890.19;;;16.72;52.21
30302;BME280;17111;52.130;5.028;2023-02-18T05:01:52;101898.22;;;16.72;52.78
30302;BME280;17111;52.130;5.028;2023-02-18T05:04:18;101907.16;;;16.72;52.81
30302;BME280;17111;52.130;5.028;2023-02-18T05:06:45;101902.75;;;16.71;52.28
30302;BME280;17111;52.130;5.028;2023-02-18T05:09:12;101892.88;;;16.72;52.45
30302;BME280;17111;52.130;5.028;2023-02-18T05:11:39;101890.19;;;16.72;51.82
30302;BME280;17111;52.130;5.028;2023-02-18T05:14:05;101887.53;;;16.72;52.55
30302;BME280;17111;52.130;5.028;2023-02-18T05:16:32;101892.88;;;16.72;52.27
30302;BME280;17111;52.130;5.028;2023-02-18T05:18:59;101895.56;;;16.72;52.16
30302;BME280;17111;52.130;5.028;2023-02-18T05:21:25;101895.56;;;16.72;52.23
30302;BME280;17111;52.130;5.028;2023-02-18T05:23:52;101881.25;;;16.73;52.36
30302;BME280;17111;52.130;5.028;2023-02-18T05:26:18;101885.72;;;16.72;52.11
30302;BME280;17111;52.130;5.028;2023-02-18T05:28:45;101883.94;;;16.73;52.53
30302;BME280;17111;52.130;5.028;2023-02-18T05:31:11;101882.09;;;16.73;52.83
30302;BME280;17111;52.130;5.028;2023-02-18T05:33:38;101870.56;;;16.73;52.97
30302;BME280;17111;52.130;5.028;2023-02-18T05:36:05;101870.56;;;16.73;52.11
30302;BME280;17111;52.130;5.028;2023-02-18T05:38:32;101867.00;;;16.72;52.93
30302;BME280;17111;52.130;5.028;2023-02-18T05:40:58;101862.53;;;16.73;52.00
30302;BME280;17111;52.130;5.028;2023-02-18T05:43:25;101866.03;;;16.73;52.61
30302;BME280;17111;52.130;5.028;2023-02-18T05:45:51;101872.25;;;16.74;52.60
30302;BME280;17111;52.130;5.028;2023-02-18T05:48:18;101865.06;;;16.74;52.28
30302;BME280;17111;52.130;5.028;2023-02-18T05:50:44;101866.03;;;16.73;52.46
30302;BME280;17111;52.130;5.028;2023-02-18T05:53:11;101857.03;;;16.74;53.22
30302;BME280;17111;52.130;5.028;2023-02-18T05:55:37;101842.78;;;16.74;52.50
30302;BME280;17111;52.130;5.028;2023-02-18T05:58:05;101839.28;;;16.73;52.79
30302;BME280;17111;52.130;5.028;2023-02-18T06:00:32;101840.97;;;16.74;52.31
30302;BME280;17111;52.130;5.028;2023-02-18T06:02:58;101850.81;;;16.74;53.15
30302;BME280;17111;52.130;5.028;2023-02-18T06:05:25;101844.50;;;16.75;52.43
30302;BME280;17111;52.130;5.028;2023-02-18T06:07:51;101835.63;;;16.74;52.49
30302;BME280;17111;52.130;5.028;2023-02-18T06:10:21;101844.50;;;16.75;53.14
30302;BME280;17111;52.130;5.028;2023-02-18T06:12:48;101844.50;;;16.75;52.76
30302;BME280;17111;52.130;5.028;2023-02-18T06:15:14;101840.97;;;16.74;53.21
30302;BME280;17111;52.130;5.028;2023-02-18T06:17:41;101844.50;;;16.75;52.42
30302;BME280;17111;52.130;5.028;2023-02-18T06:20:08;101848.03;;;16.75;52.58
30302;BME280;17111;52.130;5.028;2023-02-18T06:22:35;101852.53;;;16.75;53.36
30302;BME280;17111;52.130;5.028;2023-02-18T06:25:01;101848.03;;;16.75;52.40
30302;BME280;17111;52.130;5.028;2023-02-18T06:27:28;101846.19;;;16.76;53.14
30302;BME280;17111;52.130;5.028;2023-02-18T06:29:54;101837.31;;;16.75;52.67
30302;BME280;17111;52.130;5.028;2023-02-18T06:32:21;101841.72;;;16.76;52.23
30302;BME280;17111;52.130;5.028;2023-02-18T06:34:47;101849.75;;;16.76;52.86
30302;BME280;17111;52.130;5.028;2023-02-18T06:37:14;101849.75;;;16.76;52.31
30302;BME280;17111;52.130;5.028;2023-02-18T06:39:40;101850.59;;;16.77;53.32
30302;BME280;17111;52.130;5.028;2023-02-18T06:42:07;101845.25;;;16.77;52.85
30302;BME280;17111;52.130;5.028;2023-02-18T06:44:33;101845.09;;;16.78;53.30
30302;BME280;17111;52.130;5.028;2023-02-18T06:47:03;101848.53;;;16.81;52.67
30302;BME280;17111;52.130;5.028;2023-02-18T06:49:29;101847.66;;;16.80;53.47
30302;BME280;17111;52.130;5.028;2023-02-18T06:51:56;101852.91;;;16.82;53.12
30302;BME280;17111;52.130;5.028;2023-02-18T06:54:22;101858.25;;;16.82;53.12
30302;BME280;17111;52.130;5.028;2023-02-18T06:56:50;101847.41;;;16.83;52.69
30302;BME280;17111;52.130;5.028;2023-02-18T06:59:16;101848.25;;;16.84;53.05
30302;BME280;17111;52.130;5.028;2023-02-18T07:01:43;101854.47;;;16.84;53.28
30302;BME280;17111;52.130;5.028;2023-02-18T07:04:09;101844.63;;;16.85;53.10
30302;BME280;17111;52.130;5.028;2023-02-18T07:06:36;101855.22;;;16.86;53.51
30302;BME280;17111;52.130;5.028;2023-02-18T07:09:03;101849.84;;;16.86;53.42
30302;BME280;17111;52.130;5.028;2023-02-18T07:11:30;101864.09;;;16.87;52.90
30302;BME280;17111;52.130;5.028;2023-02-18T07:13:56;101845.34;;;16.87;52.96
30302;BME280;17111;52.130;5.028;2023-02-18T07:16:23;101859.50;;;16.89;52.86
30302;BME280;17111;52.130;5.028;2023-02-18T07:18:49;101846.09;;;16.89;53.05
30302;BME280;17111;52.130;5.028;2023-02-18T07:21:16;101851.47;;;16.89;53.42
30302;BME280;17111;52.130;5.028;2023-02-18T07:23:43;101850.56;;;16.88;53.33
30302;BME280;17111;52.130;5.028;2023-02-18T07:26:11;101835.38;;;16.89;53.45
30302;BME280;17111;52.130;5.028;2023-02-18T07:28:38;101840.59;;;16.90;53.35
30302;BME280;17111;52.130;5.028;2023-02-18T07:31:06;101838.06;;;16.89;53.58
30302;BME280;17111;52.130;5.028;2023-02-18T07:33:33;101840.75;;;16.89;52.99
30302;BME280;17111;52.130;5.028;2023-02-18T07:36:01;101834.50;;;16.88;53.54
30302;BME280;17111;52.130;5.028;2023-02-18T07:38:28;101833.56;;;16.89;53.29
30302;BME280;17111;52.130;5.028;2023-02-18T07:40:55;101839.00;;;16.88;53.49
30302;BME280;17111;52.130;5.028;2023-02-18T07:43:23;101846.09;;;16.89;53.82
30302;BME280;17111;52.130;5.028;2023-02-18T07:45:49;101852.41;;;16.88;53.45
30302;BME280;17111;52.130;5.028;2023-02-18T07:48:16;101838.06;;;16.89;53.76
30302;BME280;17111;52.130;5.028;2023-02-18T07:50:44;101845.13;;;16.90;53.17
30302;BME280;17111;52.130;5.028;2023-02-18T07:53:12;101833.56;;;16.89;53.82
30302;BME280;17111;52.130;5.028;2023-02-18T07:55:39;101838.91;;;16.89;53.41
30302;BME280;17111;52.130;5.028;2023-02-18T07:58:15;101851.56;;;16.87;53.26
30302;BME280;17111;52.130;5.028;2023-02-18T08:00:42;101854.13;;;16.89;53.24
30302;BME280;17111;52.130;5.028;2023-02-18T08:03:09;101855.94;;;16.88;53.67
30302;BME280;17111;52.130;5.028;2023-02-18T08:05:36;101852.41;;;16.88;53.74
30302;BME280;17111;52.130;5.028;2023-02-18T08:08:03;101857.75;;;16.88;53.67
30302;BME280;17111;52.130;5.028;2023-02-18T08:10:29;101855.09;;;16.88;52.99
30302;BME280;17111;52.130;5.028;2023-02-18T08:12:56;101854.22;;;16.87;53.68
30302;BME280;17111;52.130;5.028;2023-02-18T08:15:22;101852.41;;;16.88;52.98
30302;BME280;17111;52.130;5.028;2023-02-18T08:17:49;101873.81;;;16.88;53.04
30302;BME280;17111;52.130;5.028;2023-02-18T08:20:16;101848.03;;;16.87;53.73
30302;BME280;17111;52.130;5.028;2023-02-18T08:22:43;101859.59;;;16.87;53.06
30302;BME280;17111;52.130;5.028;2023-02-18T08:25:10;101856.06;;;16.87;53.03
30302;BME280;17111;52.130;5.028;2023-02-18T08:27:52;101865.06;;;16.86;53.43
30302;BME280;17111;52.130;5.028;2023-02-18T08:30:19;101869.59;;;16.85;52.93
30302;BME280;17111;52.130;5.028;2023-02-18T08:32:46;101864.09;;;16.87;53.77
30302;BME280;17111;52.130;5.028;2023-02-18T08:35:12;101862.25;;;16.87;54.04
30302;BME280;17111;52.130;5.028;2023-02-18T08:37:39;101851.47;;;16.89;54.09
30302;BME280;17111;52.130;5.028;2023-02-18T08:40:19;101858.38;;;16.91;53.97
30302;BME280;17111;52.130;5.028;2023-02-18T08:42:46;101862.75;;;16.92;54.34
30302;BME280;17111;52.130;5.028;2023-02-18T08:45:12;101850.25;;;16.93;54.08
30302;BME280;17111;52.130;5.028;2023-02-18T08:47:39;101857.16;;;16.95;54.79
30302;BME280;17111;52.130;5.028;2023-02-18T08:50:26;101859.59;;;16.98;54.83
30302;BME280;17111;52.130;5.028;2023-02-18T08:52:53;101857.75;;;16.99;54.52
30302;BME280;17111;52.130;5.028;2023-02-18T08:55:20;101866.41;;;17.02;55.14
30302;BME280;17111;52.130;5.028;2023-02-18T08:57:47;101866.19;;;17.06;55.44
30302;BME280;17111;52.130;5.028;2023-02-18T09:00:15;101874.94;;;17.08;55.33
30302;BME280;17111;52.130;5.028;2023-02-18T09:02:42;101868.47;;;17.10;55.38
30302;BME280;17111;52.130;5.028;2023-02-18T09:05:10;101878.97;;;17.13;55.59
30302;BME280;17111;52.130;5.028;2023-02-18T09:07:37;101875.31;;;17.14;55.62
30302;BME280;17111;52.130;5.028;2023-02-18T09:10:04;101873.34;;;17.16;55.50
30302;BME280;17111;52.130;5.028;2023-02-18T09:12:32;101885.78;;;17.17;55.77
30302;BME280;17111;52.130;5.028;2023-02-18T09:14:59;101882.81;;;17.20;55.89
30302;BME280;17111;52.130;5.028;2023-02-18T09:17:26;101887.22;;;17.21;55.84
30302;BME280;17111;52.130;5.028;2023-02-18T09:19:53;101887.09;;;17.23;56.13
30302;BME280;17111;52.130;5.028;2023-02-18T09:22:20;101889.66;;;17.24;56.01
30302;BME280;17111;52.130;5.028;2023-02-18T09:24:46;101884.28;;;17.24;55.53
30302;BME280;17111;52.130;5.028;2023-02-18T09:27:13;101886.88;;;17.26;56.19
30302;BME280;17111;52.130;5.028;2023-02-18T09:29:40;101890.41;;;17.26;55.64
30302;BME280;17111;52.130;5.028;2023-02-18T09:32:08;101868.97;;;17.26;55.92
30302;BME280;17111;52.130;5.028;2023-02-18T09:34:35;101879.53;;;17.28;56.00
30302;BME280;17111;52.130;5.028;2023-02-18T09:37:01;101883.06;;;17.28;55.92
30302;BME280;17111;52.130;5.028;2023-02-18T09:39:28;101897.34;;;17.29;55.59
30302;BME280;17111;52.130;5.028;2023-02-18T09:41:58;101898.28;;;17.28;55.58
30302;BME280;17111;52.130;5.028;2023-02-18T09:49:43;101908.16;;;17.27;54.98
30302;BME280;17111;52.130;5.028;2023-02-18T09:54:40;101906.47;;;17.26;54.92
30302;BME280;17111;52.130;5.028;2023-02-18T09:57:17;101920.84;;;17.25;55.41
30302;BME280;17111;52.130;5.028;2023-02-18T09:59:54;101905.72;;;17.24;55.02
30302;BME280;17111;52.130;5.028;2023-02-18T10:02:22;101904.78;;;17.25;55.12
30302;BME280;17111;52.130;5.028;2023-02-18T10:04:50;101918.03;;;17.27;54.93
30302;BME280;17111;52.130;5.028;2023-02-18T10:07:26;101927.78;;;17.28;55.25
30302;BME280;17111;52.130;5.028;2023-02-18T10:09:55;101904.50;;;17.28;55.62
30302;BME280;17111;52.130;5.028;2023-02-18T10:12:24;101916.09;;;17.29;55.62
30302;BME280;17111;52.130;5.028;2023-02-18T10:14:54;101919.50;;;17.31;55.44
30302;BME280;17111;52.130;5.028;2023-02-18T10:17:26;101913.16;;;17.32;55.52
30302;BME280;17111;52.130;5.028;2023-02-18T10:19:54;101915.84;;;17.32;55.08
30302;BME280;17111;52.130;5.028;2023-02-18T10:22:23;101927.44;;;17.33;55.14
30302;BME280;17111;52.130;5.028;2023-02-18T10:24:59;101911.34;;;17.33;55.15
30302;BME280;17111;52.130;5.028;2023-02-18T10:29:56;101938.25;;;17.31;54.61
30302;BME280;17111;52.130;5.028;2023-02-18T10:32:36;101926.91;;;17.27;54.91
30302;BME280;17111;52.130;5.028;2023-02-18T10:35:18;101925.09;;;17.28;54.89
30302;BME280;17111;52.130;5.028;2023-02-18T10:40:28;101938.50;;;17.28;54.74
30302;BME280;17111;52.130;5.028;2023-02-18T10:45:55;101931.06;;;17.32;55.32
30302;BME280;17111;52.130;5.028;2023-02-18T10:51:20;101934.25;;;17.37;54.98
30302;BME280;17111;52.130;5.028;2023-02-18T10:53:48;101935.94;;;17.38;55.04
30302;BME280;17111;52.130;5.028;2023-02-18T10:59:22;101935.81;;;17.39;54.73
30302;BME280;17111;52.130;5.028;2023-02-18T11:01:55;101928.63;;;17.40;54.79
30302;BME280;17111;52.130;5.028;2023-02-18T11:04:32;101933.88;;;17.41;54.67
30302;BME280;17111;52.130;5.028;2023-02-18T11:07:22;101943.75;;;17.41;54.05
30302;BME280;17111;52.130;5.028;2023-02-18T11:09:56;101935.72;;;17.41;54.51
30302;BME280;17111;52.130;5.028;2023-02-18T11:12:43;101937.28;;;17.43;54.73
30302;BME280;17111;52.130;5.028;2023-02-18T11:17:44;101934.59;;;17.43;54.22
30302;BME280;17111;52.130;5.028;2023-02-18T11:23:14;101942.75;;;17.42;54.33
30302;BME280;17111;52.130;5.028;2023-02-18T11:25:52;101936.41;;;17.43;54.41
30302;BME280;17111;52.130;5.028;2023-02-18T11:30:52;101940.78;;;17.44;54.52
30302;BME280;17111;52.130;5.028;2023-02-18T11:35:53;101949.69;;;17.44;54.27
30302;BME280;17111;52.130;5.028;2023-02-18T11:38:34;101938.25;;;17.42;54.14
30302;BME280;17111;52.130;5.028;2023-02-18T11:41:06;101951.66;;;17.42;54.50
30302;BME280;17111;52.130;5.028;2023-02-18T11:43:34;101938.25;;;17.42;54.24
30302;BME280;17111;52.130;5.028;2023-02-18T11:48:36;101948.97;;;17.42;53.96
30302;BME280;17111;52.130;5.028;2023-02-18T11:51:04;101939.94;;;17.43;54.69
30302;BME280;17111;52.130;5.028;2023-02-18T11:53:34;101928.25;;;17.44;54.40
30302;BME280;17111;52.130;5.028;2023-02-18T11:56:14;101942.53;;;17.45;54.40
30302;BME280;17111;52.130;5.028;2023-02-18T11:58:46;101937.03;;;17.46;54.54
30302;BME280;17111;52.130;5.028;2023-02-18T12:01:30;101943.97;;;17.49;54.40
30302;BME280;17111;52.130;5.028;2023-02-18T12:04:30;101927.75;;;17.50;54.78
30302;BME280;17111;52.130;5.028;2023-02-18T12:07:24;101933.84;;;17.52;54.62
30302;BME280;17111;52.130;5.028;2023-02-18T12:09:55;101941.63;;;17.56;54.69
30302;BME280;17111;52.130;5.028;2023-02-18T12:12:29;101934.44;;;17.56;54.75
30302;BME280;17111;52.130;5.028;2023-02-18T12:14:59;101932.50;;;17.58;54.58
30302;BME280;17111;52.130;5.028;2023-02-18T12:17:53;101930.81;;;17.57;54.69
30302;BME280;17111;52.130;5.028;2023-02-18T12:20:35;101935.91;;;17.60;54.53
30302;BME280;17111;52.130;5.028;2023-02-18T12:26:03;101926.63;;;17.64;54.60
30302;BME280;17111;52.130;5.028;2023-02-18T12:37:04;101929.91;;;17.68;54.83
30302;BME280;17111;52.130;5.028;2023-02-18T12:39:51;101934.91;;;17.72;54.41
30302;BME280;17111;52.130;5.028;2023-02-18T12:42:40;101941.03;;;17.74;54.15
30302;BME280;17111;52.130;5.028;2023-02-18T12:48:37;101936.38;;;17.76;54.25
30302;BME280;17111;52.130;5.028;2023-02-18T12:57:47;101943.72;;;17.74;54.14
30302;BME280;17111;52.130;5.028;2023-02-18T13:02:58;101949.19;;;17.73;53.83
30302;BME280;17111;52.130;5.028;2023-02-18T13:13:25;101957.47;;;17.70;54.11
30302;BME280;17111;52.130;5.028;2023-02-18T13:16:10;101944.91;;;17.70;54.08
30302;BME280;17111;52.130;5.028;2023-02-18T13:19:03;101941.50;;;17.68;54.03
30302;BME280;17111;52.130;5.028;2023-02-18T13:21:32;101950.41;;;17.69;54.08
30302;BME280;17111;52.130;5.028;2023-02-18T13:24:05;101951.97;;;17.71;53.98
30302;BME280;17111;52.130;5.028;2023-02-18T13:26:33;101945.78;;;17.71;54.20
30302;BME280;17111;52.130;5.028;2023-02-18T13:32:09;101948.44;;;17.71;54.02
30302;BME280;17111;52.130;5.028;2023-02-18T13:34:38;101947.47;;;17.72;54.08
30302;BME280;17111;52.130;5.028;2023-02-18T13:39:49;101953.69;;;17.72;54.14
30302;BME280;17111;52.130;5.028;2023-02-18T13:47:42;101954.66;;;17.71;54.02
30302;BME280;17111;52.130;5.028;2023-02-18T13:52:58;101957.34;;;17.71;54.42
30302;BME280;17111;52.130;5.028;2023-02-18T13:58:19;101964.28;;;17.74;54.51
30302;BME280;17111;52.130;5.028;2023-02-18T14:01:01;101962.34;;;17.76;54.43
30302;BME280;17111;52.130;5.028;2023-02-18T14:05:58;101971.16;;;17.78;54.31
30302;BME280;17111;52.130;5.028;2023-02-18T14:08:36;101961.13;;;17.80;54.29
30302;BME280;17111;52.130;5.028;2023-02-18T14:14:13;101970.03;;;17.81;54.45
30302;BME280;17111;52.130;5.028;2023-02-18T14:17:11;101976.13;;;17.83;54.62
30302;BME280;17111;52.130;5.028;2023-02-18T14:19:38;101975.03;;;17.85;54.06
30302;BME280;17111;52.130;5.028;2023-02-18T14:22:28;101973.22;;;17.86;54.40
30302;BME280;17111;52.130;5.028;2023-02-18T14:25:15;101964.19;;;17.87;54.43
30302;BME280;17111;52.130;5.028;2023-02-18T14:27:42;101964.88;;;17.89;54.12
30302;BME280;17111;52.130;5.028;2023-02-18T14:30:39;101962.34;;;17.87;54.51
30302;BME280;17111;52.130;5.028;2023-02-18T14:33:14;101974.66;;;17.90;54.19
30302;BME280;17111;52.130;5.028;2023-02-18T14:35:52;101964.78;;;17.90;54.29
30302;BME280;17111;52.130;5.028;2023-02-18T14:41:44;101978.81;;;17.94;54.04
30302;BME280;17111;52.130;5.028;2023-02-18T14:51:59;101968.53;;;17.99;53.94
30302;BME280;17111;52.130;5.028;2023-02-18T14:54:28;101971.22;;;17.99;54.03
30302;BME280;17111;52.130;5.028;2023-02-18T14:56:58;101973.91;;;17.99;54.00
30302;BME280;17111;52.130;5.028;2023-02-18T14:59:29;101968.53;;;17.99;53.93
30302;BME280;17111;52.130;5.028;2023-02-18T15:01:56;101974.75;;;17.99;54.18
30302;BME280;17111;52.130;5.028;2023-02-18T15:04:24;101972.22;;;17.98;54.27
30302;BME280;17111;52.130;5.028;2023-02-18T15:07:02;101972.22;;;17.98;53.94
30302;BME280;17111;52.130;5.028;2023-02-18T15:09:30;101978.41;;;17.98;54.03
30302;BME280;17111;52.130;5.028;2023-02-18T15:12:01;101972.22;;;17.98;54.12
30302;BME280;17111;52.130;5.028;2023-02-18T15:14:35;101977.56;;;17.98;53.91
30302;BME280;17111;52.130;5.028;2023-02-18T15:17:03;101981.94;;;17.99;54.17
30302;BME280;17111;52.130;5.028;2023-02-18T15:19:40;101972.31;;;17.96;54.07
30302;BME280;17111;52.130;5.028;2023-02-18T15:22:20;101974.88;;;17.98;54.26
30302;BME280;17111;52.130;5.028;2023-02-18T15:24:48;101978.41;;;17.98;54.22